Conquista, Brazil
Current Conditions -  °F | °C
As of 11:25 AM on Monday 26 Jan 2015 (Local Time) from SBUR Reporting Station
Thunderstorm Thunderstorm  
Wind Chill: 77°   Ceiling: Unl
Heat Index: 79°   Visibility: 6mi
Dew Point: 66°   Wind: 7mph
Humidity: 69%   Direction: 340°NNW
Pressure: 30.09"   Gusts: NA
Location:  19.94°S, 47.54°W
Report Text: SBUR 261325Z 34006KT 9999 TS VCSH SCT025 FEW030CB 25/19 Q1019
Loading
Personal Weather Stations






























Interactive Weather Map New forecast layout! Learn more

10-Day Weather Forecast

Advertisements
Track Severe Weather on mobile